Elk Point, SD

2:26 PM CDT on July 25, 2014 (GMT -0500)
Rural Elk Point (KSDELKPO7) Elev 1119 ft | 42.63 °N, 96.64 °W | Change Station

Current weather conditions updated 1 minute ago

Mostly Cloudy
Mostly Cloudy
81.5 °F
Feels Like 85 °F
N
5.4
Wind Variable Wind from ENE
Gusts 5.4 mph

Today is forecast to be Much Warmer than yesterday.

Today
High -- | Low -- °F
--% Chance of Precip.
Yesterday
High -- | Low -- °F
Precip. -- in
6:11 AM 8:54 PM
Waning Crescent, 1% visible
Pressure 29.79 in
Visibility 10.0 miles
Clouds Overcast 2600 ft
Heat Index 85 °F
Dew Point 69 °F
Humidity 66%
Rainfall 0.00 in
Snow Depth Not available.
UV 3 out of 12
Pollen 4.80 out of 12
Air Quality Not available.
Flu Activity Not available.
METAR KLRJ 251915Z AUTO VRB04KT 10SM OVC026 27/21 A2979 RMK AO2

More Conditions Fewer Conditions

Pressure 29.79 in
Visibility 10.0 miles
Clouds Overcast 2600 ft
Heat Index 85 °F
Dew Point 69 °F
Humidity 66%
Rainfall 0.00 in
Snow Depth Not available.
UV 3 out of 12
Pollen 4.80 out of 12
Air Quality Not available.
Flu Activity Not available.
METAR KLRJ 251915Z AUTO VRB04KT 10SM OVC026 27/21 A2979 RMK AO2

More Conditions Fewer Conditions

10-Day Weather Forecast

Almanac

Astronomy

Jul. 25, 2014 Rise Set
Actual Time 6:11 AM CDT 8:54 PM CDT
Civil Twilight 5:38 AM CDT 9:27 PM CDT
Nautical Twilight 4:56 AM CDT 10:08 PM CDT
Astronomical Twilight 4:09 AM CDT 10:56 PM CDT
Moon 5:12 AM CDT 7:51 PM CDT
Length of Visible Light 15h 49m
Length of Day
14h 43m
Tomorrow will be 1m 58s shorter.
Waning Crescent, 1% of the Moon is Illuminated
Today
Waning Crescent
Jul 26
New
Aug 3
First Quarter
Aug 10
Full
Aug 17
Last Quarter

Today's Extremes

State Highs State Lows

Community

WunderPhotos

Upload Photos

1,737,384 photos uploaded!

Nearby

Snow Depth

Station Depth Elevation
Blind Park 0 in 6890 ft

Earthquake Activity

City Distance Mag. Time & Date
No recent earthquake activity has been reported nearby.
Minimum magnitude displayed is 2.5.

Coastal Water Temperatures

Place Temperature
No Stations Reporting

Nearby Weather Stations

Station Location Temp. Heat Index Dew Point Humidity Wind Precip. Elev Updated Type
Rural Elk Point, Elk Point, SD 81.5 °F 85 °F 69 °F 66% ENE  at  5.4 mph 0.00 in / hr 1119 ft 2:24 PM CDT Normal
McCook Lake SD, McCook Lake, SD 82.8 °F 88 °F 72 °F 69% SW  at  0.0 mph 0.00 in / hr 1114 ft 2:26 PM CDT Rapid Fire

Show More Stations Show Fewer Stations